sensor_id;sensor_type;location;lat;lon;timestamp;P1;durP1;ratioP1;P2;durP2;ratioP2
5553;SDS011;2800;49.528;8.666;2023-02-12T00:01:18;32.90;;;24.80;;
5553;SDS011;2800;49.528;8.666;2023-02-12T00:03:45;35.20;;;24.90;;
5553;SDS011;2800;49.528;8.666;2023-02-12T00:06:11;34.43;;;25.33;;
5553;SDS011;2800;49.528;8.666;2023-02-12T00:08:36;34.30;;;25.90;;
5553;SDS011;2800;49.528;8.666;2023-02-12T00:11:06;38.87;;;28.77;;
5553;SDS011;2800;49.528;8.666;2023-02-12T00:13:39;51.20;;;39.40;;
5553;SDS011;2800;49.528;8.666;2023-02-12T00:16:09;63.17;;;45.50;;
5553;SDS011;2800;49.528;8.666;2023-02-12T00:18:36;64.27;;;45.77;;
5553;SDS011;2800;49.528;8.666;2023-02-12T00:21:02;56.50;;;38.33;;
5553;SDS011;2800;49.528;8.666;2023-02-12T00:23:29;44.77;;;33.20;;
5553;SDS011;2800;49.528;8.666;2023-02-12T00:25:54;32.40;;;25.07;;
5553;SDS011;2800;49.528;8.666;2023-02-12T00:28:20;33.77;;;25.40;;
5553;SDS011;2800;49.528;8.666;2023-02-12T00:30:46;33.53;;;23.80;;
5553;SDS011;2800;49.528;8.666;2023-02-12T00:33:11;30.50;;;23.30;;
5553;SDS011;2800;49.528;8.666;2023-02-12T00:35:37;31.07;;;22.67;;
5553;SDS011;2800;49.528;8.666;2023-02-12T00:38:02;32.80;;;24.03;;
5553;SDS011;2800;49.528;8.666;2023-02-12T00:40:28;29.97;;;23.30;;
5553;SDS011;2800;49.528;8.666;2023-02-12T00:42:53;35.97;;;23.10;;
5553;SDS011;2800;49.528;8.666;2023-02-12T00:45:19;27.43;;;22.30;;
5553;SDS011;2800;49.528;8.666;2023-02-12T00:47:45;31.50;;;23.23;;
5553;SDS011;2800;49.528;8.666;2023-02-12T00:50:10;29.60;;;22.57;;
5553;SDS011;2800;49.528;8.666;2023-02-12T00:52:36;31.50;;;22.43;;
5553;SDS011;2800;49.528;8.666;2023-02-12T00:55:01;28.73;;;22.23;;
5553;SDS011;2800;49.528;8.666;2023-02-12T00:57:27;31.33;;;22.57;;
5553;SDS011;2800;49.528;8.666;2023-02-12T00:59:52;31.43;;;22.50;;
5553;SDS011;2800;49.528;8.666;2023-02-12T01:02:18;29.53;;;22.63;;
5553;SDS011;2800;49.528;8.666;2023-02-12T01:04:43;28.43;;;22.80;;
5553;SDS011;2800;49.528;8.666;2023-02-12T01:07:09;30.07;;;23.33;;
5553;SDS011;2800;49.528;8.666;2023-02-12T01:09:35;35.20;;;26.97;;
5553;SDS011;2800;49.528;8.666;2023-02-12T01:12:00;29.67;;;22.53;;
5553;SDS011;2800;49.528;8.666;2023-02-12T01:14:26;29.80;;;21.87;;
5553;SDS011;2800;49.528;8.666;2023-02-12T01:16:52;34.43;;;22.43;;
5553;SDS011;2800;49.528;8.666;2023-02-12T01:19:17;32.17;;;22.03;;
5553;SDS011;2800;49.528;8.666;2023-02-12T01:21:43;30.10;;;22.53;;
5553;SDS011;2800;49.528;8.666;2023-02-12T01:24:08;27.83;;;21.00;;
5553;SDS011;2800;49.528;8.666;2023-02-12T01:26:34;26.70;;;20.70;;
5553;SDS011;2800;49.528;8.666;2023-02-12T01:29:01;32.87;;;23.10;;
5553;SDS011;2800;49.528;8.666;2023-02-12T01:31:30;29.10;;;22.30;;
5553;SDS011;2800;49.528;8.666;2023-02-12T01:33:57;27.17;;;21.03;;
5553;SDS011;2800;49.528;8.666;2023-02-12T01:36:24;27.73;;;21.70;;
5553;SDS011;2800;49.528;8.666;2023-02-12T01:38:50;31.73;;;21.93;;
5553;SDS011;2800;49.528;8.666;2023-02-12T01:41:23;28.90;;;20.83;;
5553;SDS011;2800;49.528;8.666;2023-02-12T01:46:45;30.30;;;21.93;;
5553;SDS011;2800;49.528;8.666;2023-02-12T01:49:22;28.17;;;21.53;;
5553;SDS011;2800;49.528;8.666;2023-02-12T01:51:53;30.10;;;21.80;;
5553;SDS011;2800;49.528;8.666;2023-02-12T01:54:30;28.60;;;20.10;;
5553;SDS011;2800;49.528;8.666;2023-02-12T01:56:59;26.63;;;20.80;;
5553;SDS011;2800;49.528;8.666;2023-02-12T01:59:26;30.30;;;20.97;;
5553;SDS011;2800;49.528;8.666;2023-02-12T02:01:53;28.10;;;20.23;;
5553;SDS011;2800;49.528;8.666;2023-02-12T02:04:20;28.37;;;21.50;;
5553;SDS011;2800;49.528;8.666;2023-02-12T02:06:58;32.03;;;22.20;;
5553;SDS011;2800;49.528;8.666;2023-02-12T02:09:25;28.17;;;21.80;;
5553;SDS011;2800;49.528;8.666;2023-02-12T02:11:52;26.37;;;21.63;;
5553;SDS011;2800;49.528;8.666;2023-02-12T02:14:36;29.67;;;22.20;;
5553;SDS011;2800;49.528;8.666;2023-02-12T02:17:38;31.83;;;22.97;;
5553;SDS011;2800;49.528;8.666;2023-02-12T02:20:33;31.00;;;23.27;;
5553;SDS011;2800;49.528;8.666;2023-02-12T02:26:06;31.83;;;23.20;;
5553;SDS011;2800;49.528;8.666;2023-02-12T02:31:43;36.23;;;27.30;;
5553;SDS011;2800;49.528;8.666;2023-02-12T02:34:20;46.03;;;30.40;;
5553;SDS011;2800;49.528;8.666;2023-02-12T02:37:00;69.27;;;46.20;;
5553;SDS011;2800;49.528;8.666;2023-02-12T02:39:38;134.40;;;79.93;;
5553;SDS011;2800;49.528;8.666;2023-02-12T02:42:16;60.03;;;40.83;;
5553;SDS011;2800;49.528;8.666;2023-02-12T02:44:57;34.23;;;26.20;;
5553;SDS011;2800;49.528;8.666;2023-02-12T02:47:37;37.20;;;27.60;;
5553;SDS011;2800;49.528;8.666;2023-02-12T02:50:11;36.03;;;26.60;;
5553;SDS011;2800;49.528;8.666;2023-02-12T02:55:26;37.23;;;27.33;;
5553;SDS011;2800;49.528;8.666;2023-02-12T02:57:57;34.83;;;27.77;;
5553;SDS011;2800;49.528;8.666;2023-02-12T03:00:36;34.43;;;25.97;;
5553;SDS011;2800;49.528;8.666;2023-02-12T03:03:06;34.13;;;26.60;;
5553;SDS011;2800;49.528;8.666;2023-02-12T03:05:42;33.53;;;26.23;;
5553;SDS011;2800;49.528;8.666;2023-02-12T03:08:14;42.73;;;32.77;;
5553;SDS011;2800;49.528;8.666;2023-02-12T03:10:49;35.43;;;27.50;;
5553;SDS011;2800;49.528;8.666;2023-02-12T03:13:29;35.03;;;26.20;;
5553;SDS011;2800;49.528;8.666;2023-02-12T03:16:18;35.80;;;25.53;;
5553;SDS011;2800;49.528;8.666;2023-02-12T03:18:52;37.57;;;26.93;;
5553;SDS011;2800;49.528;8.666;2023-02-12T03:21:25;40.73;;;27.17;;
5553;SDS011;2800;49.528;8.666;2023-02-12T03:24:15;32.53;;;25.70;;
5553;SDS011;2800;49.528;8.666;2023-02-12T03:26:52;34.47;;;26.73;;
5553;SDS011;2800;49.528;8.666;2023-02-12T03:29:21;38.23;;;27.90;;
5553;SDS011;2800;49.528;8.666;2023-02-12T03:34:54;36.73;;;25.80;;
5553;SDS011;2800;49.528;8.666;2023-02-12T03:37:30;34.37;;;25.60;;
5553;SDS011;2800;49.528;8.666;2023-02-12T03:40:06;35.13;;;26.17;;
5553;SDS011;2800;49.528;8.666;2023-02-12T03:42:58;37.40;;;26.40;;
5553;SDS011;2800;49.528;8.666;2023-02-12T03:48:27;41.93;;;27.20;;
5553;SDS011;2800;49.528;8.666;2023-02-12T03:51:11;37.13;;;27.10;;
5553;SDS011;2800;49.528;8.666;2023-02-12T03:53:48;33.70;;;24.00;;
5553;SDS011;2800;49.528;8.666;2023-02-12T03:59:17;34.00;;;23.80;;
5553;SDS011;2800;49.528;8.666;2023-02-12T04:01:43;35.50;;;24.90;;
5553;SDS011;2800;49.528;8.666;2023-02-12T04:04:09;131.47;;;114.70;;
5553;SDS011;2800;49.528;8.666;2023-02-12T04:06:35;37.57;;;27.70;;
5553;SDS011;2800;49.528;8.666;2023-02-12T04:09:02;33.63;;;24.90;;
5553;SDS011;2800;49.528;8.666;2023-02-12T04:17:31;33.13;;;24.10;;
5553;SDS011;2800;49.528;8.666;2023-02-12T04:25:56;34.00;;;23.80;;
5553;SDS011;2800;49.528;8.666;2023-02-12T04:29:04;32.07;;;25.60;;
5553;SDS011;2800;49.528;8.666;2023-02-12T04:31:52;40.70;;;30.57;;
5553;SDS011;2800;49.528;8.666;2023-02-12T04:36:56;31.43;;;24.30;;
5553;SDS011;2800;49.528;8.666;2023-02-12T04:39:31;32.60;;;23.73;;
5553;SDS011;2800;49.528;8.666;2023-02-12T04:42:00;33.20;;;23.43;;
5553;SDS011;2800;49.528;8.666;2023-02-12T04:44:27;31.97;;;23.60;;
5553;SDS011;2800;49.528;8.666;2023-02-12T04:46:55;30.03;;;24.60;;
5553;SDS011;2800;49.528;8.666;2023-02-12T04:49:21;32.20;;;25.67;;
5553;SDS011;2800;49.528;8.666;2023-02-12T04:51:48;36.67;;;27.53;;
5553;SDS011;2800;49.528;8.666;2023-02-12T04:54:14;37.87;;;27.50;;
5553;SDS011;2800;49.528;8.666;2023-02-12T04:56:41;37.40;;;26.80;;
5553;SDS011;2800;49.528;8.666;2023-02-12T04:59:07;31.33;;;25.20;;
5553;SDS011;2800;49.528;8.666;2023-02-12T05:01:33;34.50;;;25.40;;
5553;SDS011;2800;49.528;8.666;2023-02-12T05:03:59;34.27;;;25.47;;
5553;SDS011;2800;49.528;8.666;2023-02-12T05:06:25;31.63;;;23.37;;
5553;SDS011;2800;49.528;8.666;2023-02-12T05:08:51;28.97;;;23.00;;
5553;SDS011;2800;49.528;8.666;2023-02-12T05:11:17;29.53;;;23.23;;
5553;SDS011;2800;49.528;8.666;2023-02-12T05:13:46;31.20;;;24.00;;
5553;SDS011;2800;49.528;8.666;2023-02-12T05:16:13;35.47;;;24.53;;
5553;SDS011;2800;49.528;8.666;2023-02-12T05:18:38;33.73;;;25.63;;
5553;SDS011;2800;49.528;8.666;2023-02-12T05:21:04;34.10;;;25.50;;
5553;SDS011;2800;49.528;8.666;2023-02-12T05:23:31;34.00;;;26.27;;
5553;SDS011;2800;49.528;8.666;2023-02-12T05:25:58;32.63;;;23.80;;
5553;SDS011;2800;49.528;8.666;2023-02-12T05:28:25;37.00;;;26.03;;
5553;SDS011;2800;49.528;8.666;2023-02-12T05:30:52;32.57;;;25.03;;
5553;SDS011;2800;49.528;8.666;2023-02-12T05:33:17;38.03;;;27.57;;
5553;SDS011;2800;49.528;8.666;2023-02-12T05:35:43;38.83;;;27.67;;
5553;SDS011;2800;49.528;8.666;2023-02-12T05:38:08;34.83;;;27.00;;
5553;SDS011;2800;49.528;8.666;2023-02-12T05:40:34;38.17;;;28.03;;
5553;SDS011;2800;49.528;8.666;2023-02-12T05:43:00;38.03;;;27.30;;
5553;SDS011;2800;49.528;8.666;2023-02-12T05:45:26;38.90;;;27.57;;
5553;SDS011;2800;49.528;8.666;2023-02-12T05:47:53;35.37;;;24.90;;
5553;SDS011;2800;49.528;8.666;2023-02-12T05:50:19;35.47;;;26.87;;
5553;SDS011;2800;49.528;8.666;2023-02-12T05:52:45;37.13;;;25.83;;
5553;SDS011;2800;49.528;8.666;2023-02-12T05:55:10;36.43;;;27.50;;
5553;SDS011;2800;49.528;8.666;2023-02-12T05:57:36;34.93;;;25.50;;
5553;SDS011;2800;49.528;8.666;2023-02-12T06:00:01;35.40;;;25.83;;
5553;SDS011;2800;49.528;8.666;2023-02-12T06:02:28;40.10;;;31.57;;
5553;SDS011;2800;49.528;8.666;2023-02-12T06:04:54;39.30;;;28.73;;
5553;SDS011;2800;49.528;8.666;2023-02-12T06:07:20;42.80;;;28.90;;
5553;SDS011;2800;49.528;8.666;2023-02-12T06:09:45;39.23;;;27.00;;
5553;SDS011;2800;49.528;8.666;2023-02-12T06:12:11;43.97;;;28.00;;
5553;SDS011;2800;49.528;8.666;2023-02-12T06:14:36;39.77;;;27.10;;
5553;SDS011;2800;49.528;8.666;2023-02-12T06:17:04;41.30;;;29.07;;
5553;SDS011;2800;49.528;8.666;2023-02-12T06:19:30;43.70;;;28.83;;
5553;SDS011;2800;49.528;8.666;2023-02-12T06:21:55;42.60;;;27.63;;
5553;SDS011;2800;49.528;8.666;2023-02-12T06:24:21;45.10;;;30.50;;
5553;SDS011;2800;49.528;8.666;2023-02-12T06:26:48;45.93;;;28.67;;
5553;SDS011;2800;49.528;8.666;2023-02-12T06:29:14;54.53;;;30.73;;
5553;SDS011;2800;49.528;8.666;2023-02-12T06:31:40;56.93;;;37.07;;
5553;SDS011;2800;49.528;8.666;2023-02-12T06:34:07;56.90;;;38.70;;
5553;SDS011;2800;49.528;8.666;2023-02-12T06:36:37;53.10;;;32.33;;
5553;SDS011;2800;49.528;8.666;2023-02-12T06:39:05;52.80;;;34.53;;
5553;SDS011;2800;49.528;8.666;2023-02-12T06:41:31;52.67;;;32.80;;
5553;SDS011;2800;49.528;8.666;2023-02-12T06:43:57;68.33;;;43.27;;
5553;SDS011;2800;49.528;8.666;2023-02-12T06:46:22;67.20;;;40.87;;
5553;SDS011;2800;49.528;8.666;2023-02-12T06:48:51;73.40;;;46.33;;
5553;SDS011;2800;49.528;8.666;2023-02-12T06:51:18;87.37;;;52.53;;
5553;SDS011;2800;49.528;8.666;2023-02-12T06:53:46;61.47;;;39.20;;
5553;SDS011;2800;49.528;8.666;2023-02-12T06:56:12;67.67;;;39.13;;
5553;SDS011;2800;49.528;8.666;2023-02-12T06:58:41;96.27;;;57.80;;
5553;SDS011;2800;49.528;8.666;2023-02-12T07:03:41;86.33;;;54.10;;
5553;SDS011;2800;49.528;8.666;2023-02-12T07:06:08;85.13;;;49.37;;
5553;SDS011;2800;49.528;8.666;2023-02-12T07:08:34;88.67;;;53.20;;
5553;SDS011;2800;49.528;8.666;2023-02-12T07:11:00;86.40;;;53.93;;
5553;SDS011;2800;49.528;8.666;2023-02-12T07:13:25;89.03;;;55.30;;
5553;SDS011;2800;49.528;8.666;2023-02-12T07:15:51;98.43;;;58.27;;
5553;SDS011;2800;49.528;8.666;2023-02-12T07:18:16;91.97;;;55.10;;
5553;SDS011;2800;49.528;8.666;2023-02-12T07:20:42;67.27;;;44.30;;
5553;SDS011;2800;49.528;8.666;2023-02-12T07:23:11;74.97;;;43.80;;
5553;SDS011;2800;49.528;8.666;2023-02-12T07:25:37;67.33;;;40.13;;
5553;SDS011;2800;49.528;8.666;2023-02-12T07:28:02;77.67;;;43.87;;
5553;SDS011;2800;49.528;8.666;2023-02-12T07:30:28;75.87;;;46.37;;
5553;SDS011;2800;49.528;8.666;2023-02-12T07:32:54;65.43;;;38.60;;
5553;SDS011;2800;49.528;8.666;2023-02-12T07:35:19;100.77;;;63.93;;
5553;SDS011;2800;49.528;8.666;2023-02-12T07:37:45;61.50;;;37.50;;
5553;SDS011;2800;49.528;8.666;2023-02-12T07:40:10;62.40;;;36.80;;
5553;SDS011;2800;49.528;8.666;2023-02-12T07:42:36;59.13;;;36.87;;
5553;SDS011;2800;49.528;8.666;2023-02-12T07:45:01;62.33;;;38.63;;
5553;SDS011;2800;49.528;8.666;2023-02-12T07:47:27;53.83;;;35.57;;
5553;SDS011;2800;49.528;8.666;2023-02-12T07:49:53;55.47;;;35.43;;
5553;SDS011;2800;49.528;8.666;2023-02-12T07:52:19;64.07;;;38.60;;
5553;SDS011;2800;49.528;8.666;2023-02-12T07:54:45;59.53;;;37.73;;
5553;SDS011;2800;49.528;8.666;2023-02-12T07:57:11;58.10;;;37.07;;
5553;SDS011;2800;49.528;8.666;2023-02-12T07:59:37;53.53;;;36.03;;
5553;SDS011;2800;49.528;8.666;2023-02-12T08:02:02;52.70;;;36.07;;
5553;SDS011;2800;49.528;8.666;2023-02-12T08:04:28;56.47;;;34.40;;
5553;SDS011;2800;49.528;8.666;2023-02-12T08:06:54;53.17;;;34.80;;
5553;SDS011;2800;49.528;8.666;2023-02-12T08:09:21;50.40;;;34.47;;
5553;SDS011;2800;49.528;8.666;2023-02-12T08:11:49;50.97;;;34.60;;
5553;SDS011;2800;49.528;8.666;2023-02-12T08:14:16;53.47;;;32.23;;
5553;SDS011;2800;49.528;8.666;2023-02-12T08:16:45;54.87;;;35.50;;
5553;SDS011;2800;49.528;8.666;2023-02-12T08:19:11;52.90;;;33.40;;
5553;SDS011;2800;49.528;8.666;2023-02-12T08:21:37;52.30;;;35.17;;
5553;SDS011;2800;49.528;8.666;2023-02-12T08:24:03;49.47;;;34.70;;
5553;SDS011;2800;49.528;8.666;2023-02-12T08:26:29;57.07;;;34.43;;
5553;SDS011;2800;49.528;8.666;2023-02-12T08:29:00;55.30;;;41.50;;
5553;SDS011;2800;49.528;8.666;2023-02-12T08:31:30;51.37;;;34.83;;
5553;SDS011;2800;49.528;8.666;2023-02-12T08:33:58;43.60;;;30.70;;
5553;SDS011;2800;49.528;8.666;2023-02-12T08:36:25;46.60;;;30.50;;
5553;SDS011;2800;49.528;8.666;2023-02-12T08:38:53;46.07;;;29.60;;
5553;SDS011;2800;49.528;8.666;2023-02-12T08:41:22;44.63;;;28.67;;
5553;SDS011;2800;49.528;8.666;2023-02-12T08:43:51;44.10;;;27.70;;
5553;SDS011;2800;49.528;8.666;2023-02-12T08:46:19;48.53;;;31.07;;
5553;SDS011;2800;49.528;8.666;2023-02-12T08:48:47;41.80;;;29.47;;
5553;SDS011;2800;49.528;8.666;2023-02-12T08:51:14;45.03;;;31.23;;
5553;SDS011;2800;49.528;8.666;2023-02-12T08:53:42;49.83;;;30.70;;
5553;SDS011;2800;49.528;8.666;2023-02-12T08:56:10;43.87;;;28.87;;
5553;SDS011;2800;49.528;8.666;2023-02-12T08:58:36;38.73;;;28.23;;
5553;SDS011;2800;49.528;8.666;2023-02-12T09:01:02;46.33;;;31.60;;
5553;SDS011;2800;49.528;8.666;2023-02-12T09:03:29;51.10;;;35.30;;
5553;SDS011;2800;49.528;8.666;2023-02-12T09:05:55;49.27;;;35.90;;
5553;SDS011;2800;49.528;8.666;2023-02-12T09:08:20;50.87;;;34.57;;
5553;SDS011;2800;49.528;8.666;2023-02-12T09:10:46;40.67;;;27.90;;
5553;SDS011;2800;49.528;8.666;2023-02-12T09:13:12;38.90;;;28.50;;
5553;SDS011;2800;49.528;8.666;2023-02-12T09:15:40;39.93;;;29.83;;
5553;SDS011;2800;49.528;8.666;2023-02-12T09:18:07;39.80;;;30.17;;
5553;SDS011;2800;49.528;8.666;2023-02-12T09:20:36;44.33;;;31.87;;
5553;SDS011;2800;49.528;8.666;2023-02-12T09:23:06;45.97;;;32.33;;
5553;SDS011;2800;49.528;8.666;2023-02-12T09:25:33;39.67;;;29.57;;
5553;SDS011;2800;49.528;8.666;2023-02-12T09:28:02;42.93;;;30.23;;
5553;SDS011;2800;49.528;8.666;2023-02-12T09:30:28;40.43;;;29.37;;
5553;SDS011;2800;49.528;8.666;2023-02-12T09:32:54;41.70;;;28.87;;
5553;SDS011;2800;49.528;8.666;2023-02-12T09:35:20;40.47;;;29.27;;
5553;SDS011;2800;49.528;8.666;2023-02-12T09:37:46;38.47;;;27.73;;
5553;SDS011;2800;49.528;8.666;2023-02-12T09:40:35;41.93;;;28.07;;
5553;SDS011;2800;49.528;8.666;2023-02-12T09:46:23;44.87;;;29.10;;
5553;SDS011;2800;49.528;8.666;2023-02-12T09:51:44;54.83;;;37.73;;
5553;SDS011;2800;49.528;8.666;2023-02-12T09:54:16;45.97;;;32.13;;
5553;SDS011;2800;49.528;8.666;2023-02-12T09:56:44;39.70;;;29.37;;
5553;SDS011;2800;49.528;8.666;2023-02-12T09:59:16;40.93;;;29.20;;
5553;SDS011;2800;49.528;8.666;2023-02-12T10:02:16;40.70;;;28.87;;
5553;SDS011;2800;49.528;8.666;2023-02-12T10:04:46;41.87;;;29.07;;
5553;SDS011;2800;49.528;8.666;2023-02-12T10:07:28;41.93;;;29.33;;
5553;SDS011;2800;49.528;8.666;2023-02-12T10:13:12;34.20;;;23.97;;
5553;SDS011;2800;49.528;8.666;2023-02-12T10:18:56;37.03;;;24.20;;
5553;SDS011;2800;49.528;8.666;2023-02-12T10:24:43;32.07;;;23.47;;
5553;SDS011;2800;49.528;8.666;2023-02-12T10:27:16;32.33;;;24.50;;
5553;SDS011;2800;49.528;8.666;2023-02-12T10:29:58;35.80;;;23.73;;
5553;SDS011;2800;49.528;8.666;2023-02-12T10:32:26;32.20;;;22.40;;
5553;SDS011;2800;49.528;8.666;2023-02-12T10:34:56;31.37;;;22.73;;
5553;SDS011;2800;49.528;8.666;2023-02-12T10:37:25;33.00;;;21.87;;
5553;SDS011;2800;49.528;8.666;2023-02-12T10:40:15;28.60;;;21.13;;
5553;SDS011;2800;49.528;8.666;2023-02-12T10:42:46;28.20;;;18.70;;
5553;SDS011;2800;49.528;8.666;2023-02-12T10:45:16;28.00;;;20.83;;
5553;SDS011;2800;49.528;8.666;2023-02-12T10:47:47;30.07;;;20.60;;
5553;SDS011;2800;49.528;8.666;2023-02-12T10:53:22;25.30;;;20.07;;
5553;SDS011;2800;49.528;8.666;2023-02-12T10:56:03;30.57;;;21.30;;
5553;SDS011;2800;49.528;8.666;2023-02-12T10:58:42;38.47;;;27.20;;
5553;SDS011;2800;49.528;8.666;2023-02-12T11:01:18;38.80;;;28.73;;
5553;SDS011;2800;49.528;8.666;2023-02-12T11:03:47;46.20;;;34.27;;
5553;SDS011;2800;49.528;8.666;2023-02-12T11:06:23;37.27;;;28.40;;
5553;SDS011;2800;49.528;8.666;2023-02-12T11:08:51;40.10;;;28.00;;
5553;SDS011;2800;49.528;8.666;2023-02-12T11:11:26;35.00;;;25.70;;
5553;SDS011;2800;49.528;8.666;2023-02-12T11:16:54;25.03;;;18.80;;
5553;SDS011;2800;49.528;8.666;2023-02-12T11:19:22;110.77;;;73.23;;
5553;SDS011;2800;49.528;8.666;2023-02-12T11:21:50;51.77;;;34.20;;
5553;SDS011;2800;49.528;8.666;2023-02-12T11:24:31;12.13;;;9.43;;
5553;SDS011;2800;49.528;8.666;2023-02-12T11:29:39;36.30;;;29.00;;
5553;SDS011;2800;49.528;8.666;2023-02-12T11:32:07;12.83;;;9.27;;
5553;SDS011;2800;49.528;8.666;2023-02-12T11:34:36;28.80;;;23.57;;
5553;SDS011;2800;49.528;8.666;2023-02-12T11:37:02;34.80;;;26.70;;
5553;SDS011;2800;49.528;8.666;2023-02-12T11:39:30;21.67;;;11.27;;
5553;SDS011;2800;49.528;8.666;2023-02-12T11:42:02;13.43;;;9.20;;
5553;SDS011;2800;49.528;8.666;2023-02-12T11:44:39;34.03;;;25.50;;
5553;SDS011;2800;49.528;8.666;2023-02-12T11:47:08;22.97;;;15.37;;
5553;SDS011;2800;49.528;8.666;2023-02-12T11:49:41;11.93;;;8.73;;
5553;SDS011;2800;49.528;8.666;2023-02-12T11:52:23;28.20;;;24.30;;
5553;SDS011;2800;49.528;8.666;2023-02-12T11:54:52;10.30;;;7.30;;
5553;SDS011;2800;49.528;8.666;2023-02-12T12:02:36;14.23;;;8.93;;
5553;SDS011;2800;49.528;8.666;2023-02-12T12:05:09;13.83;;;11.00;;
5553;SDS011;2800;49.528;8.666;2023-02-12T12:07:40;13.10;;;10.57;;
5553;SDS011;2800;49.528;8.666;2023-02-12T12:10:12;12.80;;;9.20;;
5553;SDS011;2800;49.528;8.666;2023-02-12T12:18:28;15.13;;;11.60;;
5553;SDS011;2800;49.528;8.666;2023-02-12T12:24:10;10.70;;;8.20;;
5553;SDS011;2800;49.528;8.666;2023-02-12T12:26:55;11.60;;;7.60;;
5553;SDS011;2800;49.528;8.666;2023-02-12T12:29:43;10.37;;;7.97;;
5553;SDS011;2800;49.528;8.666;2023-02-12T12:32:16;9.87;;;7.40;;
5553;SDS011;2800;49.528;8.666;2023-02-12T12:34:45;10.70;;;7.30;;
5553;SDS011;2800;49.528;8.666;2023-02-12T12:40:24;11.17;;;7.33;;
5553;SDS011;2800;49.528;8.666;2023-02-12T12:43:16;11.80;;;8.40;;
5553;SDS011;2800;49.528;8.666;2023-02-12T12:51:47;11.07;;;7.43;;
5553;SDS011;2800;49.528;8.666;2023-02-12T13:00:18;12.63;;;6.83;;
5553;SDS011;2800;49.528;8.666;2023-02-12T13:17:10;9.27;;;4.87;;
5553;SDS011;2800;49.528;8.666;2023-02-12T13:25:17;8.77;;;4.80;;
5553;SDS011;2800;49.528;8.666;2023-02-12T13:27:58;7.20;;;4.80;;
5553;SDS011;2800;49.528;8.666;2023-02-12T13:30:26;8.80;;;5.20;;
5553;SDS011;2800;49.528;8.666;2023-02-12T13:33:57;21.17;;;15.37;;
5553;SDS011;2800;49.528;8.666;2023-02-12T13:36:07;17.80;;;11.20;;
5553;SDS011;2800;49.528;8.666;2023-02-12T13:38:40;9.80;;;6.50;;
5553;SDS011;2800;49.528;8.666;2023-02-12T13:41:15;8.23;;;5.70;;
5553;SDS011;2800;49.528;8.666;2023-02-12T13:46:13;9.90;;;6.83;;
5553;SDS011;2800;49.528;8.666;2023-02-12T13:49:20;15.57;;;8.40;;
5553;SDS011;2800;49.528;8.666;2023-02-12T13:51:49;6.60;;;4.60;;
5553;SDS011;2800;49.528;8.666;2023-02-12T13:54:35;12.57;;;9.43;;
5553;SDS011;2800;49.528;8.666;2023-02-12T13:57:14;13.20;;;9.37;;
5553;SDS011;2800;49.528;8.666;2023-02-12T13:59:43;16.47;;;10.80;;
5553;SDS011;2800;49.528;8.666;2023-02-12T14:07:17;14.80;;;10.80;;
5553;SDS011;2800;49.528;8.666;2023-02-12T14:09:45;13.80;;;10.30;;
5553;SDS011;2800;49.528;8.666;2023-02-12T14:15:02;17.17;;;11.13;;
5553;SDS011;2800;49.528;8.666;2023-02-12T14:17:51;12.73;;;10.27;;
5553;SDS011;2800;49.528;8.666;2023-02-12T14:20:38;17.70;;;12.03;;
5553;SDS011;2800;49.528;8.666;2023-02-12T14:23:21;16.40;;;11.20;;
5553;SDS011;2800;49.528;8.666;2023-02-12T14:25:56;15.70;;;12.37;;
5553;SDS011;2800;49.528;8.666;2023-02-12T14:28:33;18.67;;;13.10;;
5553;SDS011;2800;49.528;8.666;2023-02-12T14:31:17;19.10;;;14.63;;
5553;SDS011;2800;49.528;8.666;2023-02-12T14:33:51;19.27;;;13.40;;
5553;SDS011;2800;49.528;8.666;2023-02-12T14:36:40;18.63;;;13.70;;
5553;SDS011;2800;49.528;8.666;2023-02-12T14:47:08;22.70;;;16.70;;
5553;SDS011;2800;49.528;8.666;2023-02-12T14:49:38;26.43;;;18.63;;
5553;SDS011;2800;49.528;8.666;2023-02-12T14:52:13;24.83;;;18.70;;
5553;SDS011;2800;49.528;8.666;2023-02-12T14:54:51;22.03;;;16.67;;
5553;SDS011;2800;49.528;8.666;2023-02-12T14:57:30;23.73;;;17.37;;
5553;SDS011;2800;49.528;8.666;2023-02-12T15:00:18;24.13;;;18.63;;
5553;SDS011;2800;49.528;8.666;2023-02-12T15:03:01;25.20;;;19.00;;
5553;SDS011;2800;49.528;8.666;2023-02-12T15:11:19;25.80;;;18.87;;
5553;SDS011;2800;49.528;8.666;2023-02-12T15:14:00;32.20;;;20.57;;
5553;SDS011;2800;49.528;8.666;2023-02-12T15:16:46;25.03;;;18.37;;
5553;SDS011;2800;49.528;8.666;2023-02-12T15:19:36;25.00;;;19.07;;
5553;SDS011;2800;49.528;8.666;2023-02-12T15:22:21;27.50;;;19.50;;
5553;SDS011;2800;49.528;8.666;2023-02-12T15:27:45;24.63;;;17.90;;
5553;SDS011;2800;49.528;8.666;2023-02-12T15:30:14;27.27;;;18.57;;
5553;SDS011;2800;49.528;8.666;2023-02-12T15:32:46;24.20;;;17.20;;
5553;SDS011;2800;49.528;8.666;2023-02-12T15:35:45;25.97;;;18.50;;
5553;SDS011;2800;49.528;8.666;2023-02-12T15:38:08;27.23;;;18.77;;
5553;SDS011;2800;49.528;8.666;2023-02-12T15:40:52;26.97;;;18.43;;
5553;SDS011;2800;49.528;8.666;2023-02-12T15:43:24;26.20;;;18.10;;
5553;SDS011;2800;49.528;8.666;2023-02-12T15:45:52;23.20;;;17.90;;
5553;SDS011;2800;49.528;8.666;2023-02-12T15:48:19;29.03;;;18.83;;
5553;SDS011;2800;49.528;8.666;2023-02-12T15:53:22;24.57;;;17.70;;
5553;SDS011;2800;49.528;8.666;2023-02-12T15:55:49;23.00;;;17.03;;
5553;SDS011;2800;49.528;8.666;2023-02-12T16:00:50;26.23;;;18.50;;
5553;SDS011;2800;49.528;8.666;2023-02-12T16:03:20;26.67;;;19.00;;
5553;SDS011;2800;49.528;8.666;2023-02-12T16:05:51;25.17;;;17.80;;
5553;SDS011;2800;49.528;8.666;2023-02-12T16:08:27;27.03;;;18.83;;
5553;SDS011;2800;49.528;8.666;2023-02-12T16:10:55;31.40;;;18.70;;
5553;SDS011;2800;49.528;8.666;2023-02-12T16:13:28;29.27;;;19.73;;
5553;SDS011;2800;49.528;8.666;2023-02-12T16:16:03;28.90;;;20.70;;
5553;SDS011;2800;49.528;8.666;2023-02-12T16:18:28;29.20;;;20.57;;
5553;SDS011;2800;49.528;8.666;2023-02-12T16:21:02;24.77;;;19.87;;
5553;SDS011;2800;49.528;8.666;2023-02-12T16:23:48;30.23;;;20.80;;
5553;SDS011;2800;49.528;8.666;2023-02-12T16:26:24;31.67;;;22.37;;
5553;SDS011;2800;49.528;8.666;2023-02-12T16:28:52;33.80;;;22.77;;
5553;SDS011;2800;49.528;8.666;2023-02-12T16:31:20;31.87;;;23.53;;
5553;SDS011;2800;49.528;8.666;2023-02-12T16:33:50;34.07;;;23.90;;
5553;SDS011;2800;49.528;8.666;2023-02-12T16:44:33;29.80;;;23.00;;
5553;SDS011;2800;49.528;8.666;2023-02-12T16:46:48;33.63;;;22.90;;
5553;SDS011;2800;49.528;8.666;2023-02-12T16:49:16;35.50;;;23.70;;
5553;SDS011;2800;49.528;8.666;2023-02-12T16:51:44;34.20;;;21.37;;
5553;SDS011;2800;49.528;8.666;2023-02-12T16:56:55;35.93;;;24.77;;
5553;SDS011;2800;49.528;8.666;2023-02-12T16:59:21;32.67;;;24.83;;
5553;SDS011;2800;49.528;8.666;2023-02-12T17:01:57;33.33;;;24.70;;
5553;SDS011;2800;49.528;8.666;2023-02-12T17:04:28;32.10;;;25.07;;
5553;SDS011;2800;49.528;8.666;2023-02-12T17:06:54;35.67;;;24.17;;
5553;SDS011;2800;49.528;8.666;2023-02-12T17:09:20;35.33;;;26.20;;
5553;SDS011;2800;49.528;8.666;2023-02-12T17:11:46;33.30;;;25.87;;
5553;SDS011;2800;49.528;8.666;2023-02-12T17:14:15;68.70;;;46.80;;
5553;SDS011;2800;49.528;8.666;2023-02-12T17:16:42;57.27;;;34.80;;
5553;SDS011;2800;49.528;8.666;2023-02-12T17:19:08;63.37;;;39.87;;
5553;SDS011;2800;49.528;8.666;2023-02-12T17:21:37;102.97;;;54.07;;
5553;SDS011;2800;49.528;8.666;2023-02-12T17:24:18;186.43;;;79.83;;
5553;SDS011;2800;49.528;8.666;2023-02-12T17:26:46;361.63;;;145.43;;
5553;SDS011;2800;49.528;8.666;2023-02-12T17:29:14;252.73;;;117.40;;
5553;SDS011;2800;49.528;8.666;2023-02-12T17:31:43;364.17;;;160.60;;
5553;SDS011;2800;49.528;8.666;2023-02-12T17:34:09;199.17;;;115.77;;
5553;SDS011;2800;49.528;8.666;2023-02-12T17:36:35;48.90;;;36.10;;
5553;SDS011;2800;49.528;8.666;2023-02-12T17:39:02;44.57;;;32.80;;
5553;SDS011;2800;49.528;8.666;2023-02-12T17:41:29;42.57;;;28.73;;
5553;SDS011;2800;49.528;8.666;2023-02-12T17:43:55;44.67;;;27.37;;